createdAt,value
2023-04-12T00:01:29.355Z,98530.78
2023-04-12T00:03:34.564Z,98532.56
2023-04-12T00:05:39.126Z,98528.16
2023-04-12T00:07:47.105Z,98526.50
2023-04-12T00:09:51.130Z,98521.25
2023-04-12T00:11:54.951Z,98521.25
2023-04-12T00:13:58.977Z,98520.41
2023-04-12T00:16:04.141Z,98524.00
2023-04-12T00:18:07.618Z,98521.47
2023-04-12T00:20:13.145Z,98519.81
2023-04-12T00:22:17.153Z,98518.00
2023-04-12T00:24:20.826Z,98518.13
2023-04-12T00:26:25.277Z,98515.50
2023-04-12T00:28:29.366Z,98519.19
2023-04-12T00:30:33.049Z,98523.72
2023-04-12T00:32:38.096Z,98521.09
2023-04-12T00:34:42.046Z,98525.47
2023-04-12T00:36:45.737Z,98498.47
2023-04-12T00:38:49.188Z,98503.06
2023-04-12T00:40:52.395Z,98519.75
2023-04-12T00:42:55.621Z,98519.75
2023-04-12T00:44:59.017Z,98524.25
2023-04-12T00:47:03.074Z,98506.03
2023-04-12T00:49:08.158Z,98494.75
2023-04-12T00:51:11.553Z,98497.38
2023-04-12T00:53:15.829Z,98495.81
2023-04-12T00:55:19.253Z,98486.50
2023-04-12T00:57:22.570Z,98503.84
2023-04-12T00:59:26.647Z,98497.91
2023-04-12T01:01:32.112Z,98490.16
2023-04-12T01:03:35.470Z,98490.38
2023-04-12T01:05:51.174Z,98494.78
2023-04-12T01:08:05.301Z,98499.19
2023-04-12T01:10:16.103Z,98493.84
2023-04-12T01:12:27.434Z,98490.38
2023-04-12T01:14:42.487Z,98496.56
2023-04-12T01:16:51.279Z,98493.09
2023-04-12T01:19:05.053Z,98500.13
2023-04-12T01:21:16.646Z,98487.88
2023-04-12T01:23:43.041Z,98478.38
2023-04-12T01:26:11.177Z,98472.38
2023-04-12T01:28:17.822Z,98474.06
2023-04-12T01:30:26.585Z,98466.22
2023-04-12T01:32:31.866Z,98478.38
2023-04-12T01:34:37.099Z,98471.34
2023-04-12T01:36:40.713Z,98471.34
2023-04-12T01:38:45.080Z,98486.22
2023-04-12T01:40:50.051Z,98472.38
2023-04-12T01:43:06.177Z,98469.88
2023-04-12T01:45:11.613Z,98471.56
2023-04-12T01:47:15.030Z,98481.19
2023-04-12T01:49:19.458Z,98467.38
2023-04-12T01:51:35.309Z,98460.47
2023-04-12T01:53:47.930Z,98462.38
2023-04-12T01:55:54.170Z,98467.81
2023-04-12T01:57:59.064Z,98448.66
2023-04-12T02:00:06.662Z,98442.59
2023-04-12T02:02:18.964Z,98450.47
2023-04-12T02:04:23.175Z,98437.38
2023-04-12T02:06:28.018Z,98438.09
2023-04-12T02:08:31.907Z,98426.78
2023-04-12T02:10:36.754Z,98412.03
2023-04-12T02:12:40.109Z,98423.44
2023-04-12T02:14:43.448Z,98395.56
2023-04-12T02:16:48.097Z,98396.44
2023-04-12T02:18:52.955Z,98396.44
2023-04-12T02:20:57.782Z,98391.19
2023-04-12T02:23:01.143Z,98385.09
2023-04-12T02:25:06.479Z,98373.81
2023-04-12T02:27:09.426Z,98372.13
2023-04-12T02:29:14.347Z,98356.44
2023-04-12T02:31:17.880Z,98355.59
2023-04-12T02:33:28.354Z,98341.78
2023-04-12T02:35:36.370Z,98339.28
2023-04-12T02:37:46.789Z,98347.13
2023-04-12T02:39:50.099Z,98324.44
2023-04-12T02:41:53.628Z,98319.09
2023-04-12T02:43:57.091Z,98313.00
2023-04-12T02:46:00.712Z,98296.59
2023-04-12T02:48:05.442Z,98312.41
2023-04-12T02:50:09.832Z,98314.16
2023-04-12T02:52:24.446Z,98298.69
2023-04-12T02:54:40.511Z,98292.66
2023-04-12T02:56:50.213Z,98282.19
2023-04-12T02:59:10.608Z,98270.03
2023-04-12T03:01:34.057Z,98260.63
2023-04-12T03:03:57.328Z,98268.47
2023-04-12T03:06:14.482Z,98266.69
2023-04-12T03:08:20.509Z,98275.50
2023-04-12T03:10:29.108Z,98243.38
2023-04-12T03:12:41.125Z,98237.31
2023-04-12T03:14:52.520Z,98213.88
2023-04-12T03:16:59.821Z,98207.69
2023-04-12T03:19:03.217Z,98224.34
2023-04-12T03:21:07.671Z,98221.75
2023-04-12T03:23:11.159Z,98224.34
2023-04-12T03:25:21.292Z,98209.59
2023-04-12T03:27:31.018Z,98197.47
2023-04-12T03:29:35.048Z,98187.00
2023-04-12T03:31:39.437Z,98195.78
2023-04-12T03:33:44.964Z,98190.66
2023-04-12T03:35:56.796Z,98188.06
2023-04-12T03:38:01.214Z,98183.66
2023-04-12T03:40:06.190Z,98194.13
2023-04-12T03:42:18.697Z,98194.13
2023-04-12T03:44:33.563Z,98180.94
2023-04-12T03:46:42.201Z,98181.06
2023-04-12T03:48:47.404Z,98171.28
2023-04-12T03:50:54.801Z,98158.22
2023-04-12T03:52:59.375Z,98130.28
2023-04-12T03:55:08.580Z,98145.13
2023-04-12T03:57:14.676Z,98139.88
2023-04-12T03:59:21.175Z,98135.50
2023-04-12T04:01:26.147Z,98125.88
2023-04-12T04:03:30.196Z,98127.53
2023-04-12T04:05:44.316Z,98117.06
2023-04-12T04:07:48.978Z,98114.47
2023-04-12T04:09:52.431Z,98119.56
2023-04-12T04:11:56.033Z,98109.09
2023-04-12T04:14:01.440Z,98110.88
2023-04-12T04:16:07.190Z,98105.41
2023-04-12T04:18:10.510Z,98100.88
2023-04-12T04:20:14.662Z,98071.84
2023-04-12T04:22:22.951Z,98083.03
2023-04-12T04:24:28.316Z,98067.09
2023-04-12T04:26:38.469Z,98071.13
2023-04-12T04:28:50.437Z,98060.66
2023-04-12T04:31:04.205Z,98052.81
2023-04-12T04:33:09.002Z,98042.34
2023-04-12T04:35:17.215Z,98052.69
2023-04-12T04:37:43.672Z,98034.38
2023-04-12T04:39:48.679Z,98029.97
2023-04-12T04:41:55.151Z,98026.63
2023-04-12T04:44:09.713Z,98021.41
2023-04-12T04:46:21.401Z,98013.56
2023-04-12T04:48:25.537Z,98003.94
2023-04-12T04:50:29.724Z,97979.53
2023-04-12T04:52:33.416Z,97981.06
2023-04-12T04:54:43.709Z,97972.16
2023-04-12T04:56:47.628Z,97967.63
2023-04-12T04:58:54.737Z,97957.03
2023-04-12T05:01:00.976Z,97958.44
2023-04-12T05:03:08.068Z,97968.78
2023-04-12T05:05:12.784Z,97957.25
2023-04-12T05:07:16.420Z,97938.53
2023-04-12T05:09:22.556Z,97935.91
2023-04-12T05:11:32.472Z,97922.56
2023-04-12T05:13:36.171Z,97921.34
2023-04-12T05:15:42.258Z,97901.13
2023-04-12T05:17:46.320Z,97903.47
2023-04-12T05:19:51.318Z,97893.72
2023-04-12T05:21:55.083Z,97885.75
2023-04-12T05:23:58.596Z,97879.56
2023-04-12T05:26:02.401Z,97876.81
2023-04-12T05:28:12.000Z,97865.34
2023-04-12T05:30:15.798Z,97881.78
2023-04-12T05:32:20.305Z,97867.72
2023-04-12T05:34:24.156Z,97851.03
2023-04-12T05:36:32.135Z,97857.81
2023-04-12T05:38:36.068Z,97856.84
2023-04-12T05:40:44.905Z,97854.81
2023-04-12T05:42:51.224Z,97844.06
2023-04-12T05:44:56.616Z,97831.66
2023-04-12T05:47:01.562Z,97827.84
2023-04-12T05:49:05.148Z,97809.25
2023-04-12T05:51:09.978Z,97798.47
2023-04-12T05:53:14.870Z,97788.59
2023-04-12T05:55:18.570Z,97777.81
2023-04-12T05:57:22.254Z,97764.47
2023-04-12T05:59:26.162Z,97759.78
2023-04-12T06:01:32.515Z,97760.31
2023-04-12T06:03:42.036Z,97742.56
2023-04-12T06:05:48.070Z,97740.50
2023-04-12T06:07:51.712Z,97725.31
2023-04-12T06:09:56.990Z,97722.44
2023-04-12T06:12:01.021Z,97704.09
2023-04-12T06:14:06.435Z,97690.00
2023-04-12T06:16:10.348Z,97685.63
2023-04-12T06:18:14.200Z,97685.63
2023-04-12T06:20:17.691Z,97681.19
2023-04-12T06:22:21.132Z,97676.50
2023-04-12T06:24:25.046Z,97663.78
2023-04-12T06:26:37.408Z,97672.75
2023-04-12T06:28:43.768Z,97658.00
2023-04-12T06:30:47.643Z,97667.66
2023-04-12T06:32:51.396Z,97645.31
2023-04-12T06:34:55.371Z,97649.16
2023-04-12T06:37:00.100Z,97653.81
2023-04-12T06:39:04.014Z,97639.22
2023-04-12T06:41:08.121Z,97636.19
2023-04-12T06:43:14.001Z,97627.31
2023-04-12T06:45:17.864Z,97625.13
2023-04-12T06:47:22.939Z,97608.69
2023-04-12T06:49:26.513Z,97602.50
2023-04-12T06:51:30.666Z,97599.88
2023-04-12T06:53:35.379Z,97592.59
2023-04-12T06:55:39.081Z,97581.53
2023-04-12T06:57:43.588Z,97575.88
2023-04-12T06:59:49.203Z,97564.88
2023-04-12T07:01:53.011Z,97560.28
2023-04-12T07:03:56.915Z,97553.94
2023-04-12T07:06:10.611Z,97551.72
2023-04-12T07:08:21.157Z,97548.94
2023-04-12T07:10:24.719Z,97540.94
2023-04-12T07:12:28.452Z,97531.69
2023-04-12T07:14:32.118Z,97517.94
2023-04-12T07:16:37.135Z,97509.81
2023-04-12T07:18:40.994Z,97501.25
2023-04-12T07:20:44.610Z,97494.63
2023-04-12T07:22:48.199Z,97493.50
2023-04-12T07:24:52.237Z,97487.44
2023-04-12T07:26:59.377Z,97482.34
2023-04-12T07:29:02.837Z,97475.47
2023-04-12T07:31:07.859Z,97469.66
2023-04-12T07:33:19.467Z,97464.28
2023-04-12T07:35:23.885Z,97456.31
2023-04-12T07:37:27.553Z,97454.38
2023-04-12T07:39:31.945Z,97454.25
2023-04-12T07:41:35.651Z,97452.31
2023-04-12T07:43:39.343Z,97458.53
2023-04-12T07:45:42.988Z,97460.34
2023-04-12T07:47:46.771Z,97459.38
2023-04-12T07:49:51.794Z,97460.09
2023-04-12T07:51:55.522Z,97460.81
2023-04-12T07:53:59.308Z,97451.59
2023-04-12T07:56:05.224Z,97447.31
2023-04-12T07:58:10.109Z,97449.09
2023-04-12T08:00:14.452Z,97448.97
2023-04-12T08:02:25.214Z,97450.06
2023-04-12T08:04:29.291Z,97459.69
2023-04-12T08:06:34.581Z,97453.25
2023-04-12T08:08:38.278Z,97454.03
2023-04-12T08:10:41.931Z,97453.88
2023-04-12T08:12:45.708Z,97447.22
2023-04-12T08:14:49.171Z,97453.09
2023-04-12T08:16:52.631Z,97453.75
2023-04-12T08:18:56.407Z,97443.94
2023-04-12T08:21:00.892Z,97441.50
2023-04-12T08:23:05.969Z,97458.94
2023-04-12T08:25:10.848Z,97457.84
2023-04-12T08:27:14.305Z,97457.06
2023-04-12T08:29:18.111Z,97458.72
2023-04-12T08:31:21.802Z,97464.22
2023-04-12T08:33:25.952Z,97464.03
2023-04-12T08:35:29.703Z,97471.22
2023-04-12T08:37:33.436Z,97474.09
2023-04-12T08:39:38.902Z,97464.78
2023-04-12T08:41:43.054Z,97461.69
2023-04-12T08:43:48.252Z,97464.94
2023-04-12T08:45:52.138Z,97470.59
2023-04-12T08:47:56.771Z,97476.63
2023-04-12T08:50:02.903Z,97476.13
2023-04-12T08:52:09.694Z,97477.00
2023-04-12T08:54:14.424Z,97491.41
2023-04-12T08:56:22.412Z,97488.63
2023-04-12T08:58:27.331Z,97495.22
2023-04-12T09:00:32.370Z,97492.47
2023-04-12T09:02:37.658Z,97500.03
2023-04-12T09:04:51.355Z,97499.06
2023-04-12T09:06:55.280Z,97503.50
2023-04-12T09:09:00.393Z,97508.28
2023-04-12T09:11:05.365Z,97509.50
2023-04-12T09:13:11.590Z,97522.06
2023-04-12T09:15:18.576Z,97524.28
2023-04-12T09:17:25.821Z,97526.66
2023-04-12T09:19:34.599Z,97531.53
2023-04-12T09:21:38.983Z,97528.22
2023-04-12T09:23:43.770Z,97529.44
2023-04-12T09:25:49.664Z,97532.22
2023-04-12T09:27:58.515Z,97533.72
2023-04-12T09:30:16.662Z,97531.88
2023-04-12T09:32:28.132Z,97533.41
2023-04-12T09:34:32.711Z,97528.88
2023-04-12T09:36:40.634Z,97543.28
2023-04-12T09:39:01.011Z,97545.25
2023-04-12T09:41:22.324Z,97546.00
2023-04-12T09:43:38.872Z,97551.19
2023-04-12T09:45:44.201Z,97554.72
2023-04-12T09:47:48.914Z,97558.03
2023-04-12T09:49:53.540Z,97568.06
2023-04-12T09:51:59.428Z,97569.44
2023-04-12T09:54:05.505Z,97571.44
2023-04-12T09:56:12.294Z,97570.31
2023-04-12T09:58:21.503Z,97568.81
2023-04-12T10:00:27.873Z,97571.59
2023-04-12T10:02:34.101Z,97579.00
2023-04-12T10:04:41.497Z,97576.63
2023-04-12T10:06:46.224Z,97573.25
2023-04-12T10:08:51.331Z,97585.63
2023-04-12T10:10:55.347Z,97590.63
2023-04-12T10:13:01.108Z,97577.59
2023-04-12T10:15:12.913Z,97588.09
2023-04-12T10:17:17.105Z,97588.66
2023-04-12T10:19:24.431Z,97585.56
2023-04-12T10:21:28.515Z,97596.31
2023-04-12T10:23:33.988Z,97594.88
2023-04-12T10:25:41.288Z,97600.75
2023-04-12T10:27:49.070Z,97607.97
2023-04-12T10:29:53.109Z,97602.56
2023-04-12T10:31:58.157Z,97594.81
2023-04-12T10:34:04.128Z,97610.75
2023-04-12T10:36:12.519Z,97612.19
2023-04-12T10:38:17.558Z,97625.47
2023-04-12T10:40:21.652Z,97633.25
2023-04-12T10:42:27.600Z,97637.97
2023-04-12T10:44:32.524Z,97653.75
2023-04-12T10:46:54.272Z,97633.84
2023-04-12T10:48:59.565Z,97644.13
2023-04-12T10:51:23.719Z,97650.63
2023-04-12T10:53:27.418Z,97655.22
2023-04-12T10:55:33.791Z,97656.56
2023-04-12T10:57:49.631Z,97660.97
2023-04-12T10:59:57.596Z,97669.28
2023-04-12T11:02:12.329Z,97671.47
2023-04-12T11:04:20.899Z,97685.31
2023-04-12T11:07:03.269Z,97677.56
2023-04-12T11:09:22.353Z,97683.22
2023-04-12T11:11:27.795Z,97691.31
2023-04-12T11:13:36.576Z,97703.63
2023-04-12T11:15:41.553Z,97701.16
2023-04-12T11:17:56.976Z,97706.97
2023-04-12T11:20:02.560Z,97714.53
2023-04-12T11:22:10.677Z,97714.53
2023-04-12T11:24:17.111Z,97722.28
2023-04-12T11:26:22.346Z,97721.91
2023-04-12T11:28:30.493Z,97718.22
2023-04-12T11:30:35.708Z,97724.06
2023-04-12T11:32:41.683Z,97726.38
2023-04-12T11:34:46.985Z,97733.69
2023-04-12T11:36:54.747Z,97729.38
2023-04-12T11:39:00.193Z,97731.59
2023-04-12T11:41:04.076Z,97729.88
2023-04-12T11:43:07.891Z,97737.72
2023-04-12T11:45:18.174Z,97740.28
2023-04-12T11:47:24.128Z,97748.50
2023-04-12T11:49:28.868Z,97747.00
2023-04-12T11:51:33.973Z,97751.56
2023-04-12T11:53:37.882Z,97762.59
2023-04-12T11:55:43.057Z,97758.97
2023-04-12T11:57:54.980Z,97753.63
2023-04-12T12:00:00.853Z,97762.81
2023-04-12T12:02:17.183Z,97759.88
2023-04-12T12:04:26.896Z,97760.75
2023-04-12T12:06:31.581Z,97771.50
2023-04-12T12:08:35.845Z,97771.91
2023-04-12T12:10:52.317Z,97782.75
2023-04-12T12:13:10.604Z,97773.66
2023-04-12T12:15:17.022Z,97781.66
2023-04-12T12:17:20.911Z,97773.28
2023-04-12T12:19:29.867Z,97782.66
2023-04-12T12:21:33.659Z,97779.72
2023-04-12T12:23:37.771Z,97786.03
2023-04-12T12:25:48.376Z,97790.41
2023-04-12T12:27:59.525Z,97792.06
2023-04-12T12:30:06.004Z,97790.72
2023-04-12T12:32:15.493Z,97796.56
2023-04-12T12:34:20.324Z,97796.88
2023-04-12T12:36:31.525Z,97804.47
2023-04-12T12:38:37.627Z,97796.34
2023-04-12T12:40:41.701Z,97807.72
2023-04-12T12:42:50.109Z,97813.81
2023-04-12T12:44:53.880Z,97807.72
2023-04-12T12:47:10.070Z,97805.09
2023-04-12T12:49:17.977Z,97807.72
2023-04-12T12:51:21.795Z,97816.13
2023-04-12T12:53:25.548Z,97811.41
2023-04-12T12:55:30.316Z,97821.94
2023-04-12T12:57:35.858Z,97829.97
2023-04-12T12:59:39.525Z,97837.03
2023-04-12T13:01:43.269Z,97836.16
2023-04-12T13:03:48.997Z,97838.53
2023-04-12T13:05:52.911Z,97852.31
2023-04-12T13:07:57.079Z,97851.78
2023-04-12T13:10:01.051Z,97861.66
2023-04-12T13:12:05.127Z,97865.00
2023-04-12T13:14:08.915Z,97867.25
2023-04-12T13:16:12.771Z,97868.53
2023-04-12T13:18:17.025Z,97870.09
2023-04-12T13:20:21.993Z,97877.88
2023-04-12T13:22:27.550Z,97879.56
2023-04-12T13:24:31.414Z,97877.94
2023-04-12T13:26:35.364Z,97884.09
2023-04-12T13:28:38.861Z,97877.03
2023-04-12T13:30:42.682Z,97885.47
2023-04-12T13:32:46.393Z,97890.47
2023-04-12T13:34:50.148Z,97882.22
2023-04-12T13:36:55.592Z,97883.84
2023-04-12T13:38:59.784Z,97879.44
2023-04-12T13:41:04.252Z,97885.50
2023-04-12T13:43:08.938Z,97880.84
2023-04-12T13:45:13.490Z,97886.63
2023-04-12T13:47:18.080Z,97888.28
2023-04-12T13:49:22.092Z,97908.34
2023-04-12T13:51:27.041Z,97904.50
2023-04-12T13:53:32.164Z,97910.16
2023-04-12T13:55:36.152Z,97919.44
2023-04-12T13:57:39.839Z,97919.88
2023-04-12T13:59:43.471Z,97923.59
2023-04-12T14:01:47.655Z,97919.75
2023-04-12T14:03:51.455Z,97924.44
2023-04-12T14:05:56.215Z,97915.16
2023-04-12T14:08:00.139Z,97924.88
2023-04-12T14:10:06.051Z,97921.25
2023-04-12T14:12:09.557Z,97932.59
2023-04-12T14:14:14.851Z,97933.41
2023-04-12T14:16:20.309Z,97935.09
2023-04-12T14:18:23.968Z,97938.38
2023-04-12T14:20:27.743Z,97932.16
2023-04-12T14:22:31.723Z,97934.81
2023-04-12T14:24:35.552Z,97938.38
2023-04-12T14:26:41.324Z,97943.63
2023-04-12T14:28:45.300Z,97938.38
2023-04-12T14:30:50.682Z,97946.97
2023-04-12T14:32:54.629Z,97946.69
2023-04-12T14:34:58.551Z,97951.81
2023-04-12T14:37:02.238Z,97946.41
2023-04-12T14:39:09.372Z,97944.47
2023-04-12T14:41:14.766Z,97952.94
2023-04-12T14:43:19.760Z,97957.03
2023-04-12T14:45:24.206Z,97956.94
2023-04-12T14:47:27.916Z,97971.59
2023-04-12T14:49:33.196Z,97977.38
2023-04-12T14:51:37.303Z,97984.16
2023-04-12T14:53:43.008Z,97990.13
2023-04-12T14:55:47.288Z,98005.75
2023-04-12T14:57:51.493Z,97997.72
2023-04-12T14:59:57.125Z,98007.28
2023-04-12T15:02:01.139Z,98012.25
2023-04-12T15:04:06.825Z,98035.75
2023-04-12T15:06:11.375Z,98034.81
2023-04-12T15:08:14.957Z,98044.88
2023-04-12T15:10:19.044Z,98055.25
2023-04-12T15:12:22.717Z,98063.00
2023-04-12T15:14:26.425Z,98081.28
2023-04-12T15:16:31.821Z,98078.78
2023-04-12T15:18:38.206Z,98085.03
2023-04-12T15:20:41.831Z,98103.44
2023-04-12T15:22:45.762Z,98122.94
2023-04-12T15:24:49.529Z,98106.31
2023-04-12T15:26:54.180Z,98136.78
2023-04-12T15:28:57.786Z,98135.25
2023-04-12T15:31:01.466Z,98138.97
2023-04-12T15:33:06.901Z,98146.47
2023-04-12T15:37:18.471Z,98181.31
2023-04-12T15:39:22.513Z,98189.47
2023-04-12T15:41:26.727Z,98199.25
2023-04-12T15:43:31.084Z,98190.69
2023-04-12T15:45:35.005Z,98212.81
2023-04-12T15:47:39.024Z,98218.88
2023-04-12T15:49:44.274Z,98240.19
2023-04-12T15:51:47.861Z,98241.28
2023-04-12T15:53:51.847Z,98252.75
2023-04-12T15:55:55.554Z,98233.53
2023-04-12T15:57:58.930Z,98268.66
2023-04-12T16:00:12.383Z,98266.28
2023-04-12T16:02:15.882Z,98276.94
2023-04-12T16:04:19.535Z,98292.72
2023-04-12T16:06:25.658Z,98308.47
2023-04-12T16:08:29.232Z,98307.53
2023-04-12T16:10:33.565Z,98320.66
2023-04-12T16:12:37.022Z,98332.81
2023-04-12T16:14:40.962Z,98334.47
2023-04-12T16:16:45.009Z,98345.81
2023-04-12T16:18:48.905Z,98360.63
2023-04-12T16:20:52.987Z,98346.53
2023-04-12T16:22:59.124Z,98362.16
2023-04-12T16:25:02.496Z,98367.44
2023-04-12T16:27:06.183Z,98378.75
2023-04-12T16:29:10.954Z,98399.56
2023-04-12T16:31:15.782Z,98401.19
2023-04-12T16:33:19.453Z,98417.69
2023-04-12T16:35:23.083Z,98426.97
2023-04-12T16:37:29.864Z,98429.47
2023-04-12T16:39:35.443Z,98419.81
2023-04-12T16:41:39.405Z,98422.31
2023-04-12T16:43:45.417Z,98437.22
2023-04-12T16:45:49.655Z,98444.88
2023-04-12T16:47:53.613Z,98458.03
2023-04-12T16:49:57.662Z,98452.50
2023-04-12T16:52:01.544Z,98461.94
2023-04-12T16:54:05.422Z,98489.03
2023-04-12T16:56:12.078Z,98479.94
2023-04-12T16:58:16.442Z,98499.06
2023-04-12T17:00:25.305Z,98497.94
2023-04-12T17:02:29.140Z,98508.22
2023-04-12T17:04:33.109Z,98514.31
2023-04-12T17:06:38.556Z,98528.28
2023-04-12T17:08:44.184Z,98522.06
2023-04-12T17:10:47.801Z,98535.09
2023-04-12T17:12:54.123Z,98561.38
2023-04-12T17:14:58.478Z,98545.63
2023-04-12T17:17:06.247Z,98569.19
2023-04-12T17:19:10.754Z,98561.38
2023-04-12T17:21:19.209Z,98582.56
2023-04-12T17:23:23.200Z,98593.47
2023-04-12T17:25:31.488Z,98591.91
2023-04-12T17:27:37.689Z,98601.84
2023-04-12T17:29:42.771Z,98614.41
2023-04-12T17:31:50.748Z,98609.50
2023-04-12T17:33:56.972Z,98618.59
2023-04-12T17:36:02.067Z,98616.25
2023-04-12T17:38:05.767Z,98634.75
2023-04-12T17:40:12.101Z,98616.50
2023-04-12T17:42:27.257Z,98615.75
2023-04-12T17:44:32.633Z,98618.38
2023-04-12T17:46:38.243Z,98628.09
2023-04-12T17:48:42.762Z,98625.59
2023-04-12T17:50:47.425Z,98625.59
2023-04-12T17:52:51.108Z,98621.16
2023-04-12T17:54:55.137Z,98620.91
2023-04-12T17:56:58.710Z,98635.72
2023-04-12T17:59:06.088Z,98632.00
2023-04-12T18:01:10.025Z,98636.19
2023-04-12T18:03:16.078Z,98636.88
2023-04-12T18:05:20.090Z,98636.78
2023-04-12T18:07:24.408Z,98639.16
2023-04-12T18:09:28.676Z,98645.13
2023-04-12T18:11:34.464Z,98647.75
2023-04-12T18:13:38.200Z,98649.56
2023-04-12T18:15:41.835Z,98657.31
2023-04-12T18:17:45.680Z,98660.75
2023-04-12T18:19:50.720Z,98667.81
2023-04-12T18:21:54.002Z,98676.53
2023-04-12T18:23:59.307Z,98680.03
2023-04-12T18:26:03.444Z,98686.09
2023-04-12T18:28:08.771Z,98691.09
2023-04-12T18:30:12.565Z,98691.84
2023-04-12T18:32:17.335Z,98693.38
2023-04-12T18:34:21.179Z,98707.09
2023-04-12T18:36:28.620Z,98704.25
2023-04-12T18:38:33.213Z,98717.06
2023-04-12T18:40:39.213Z,98717.66
2023-04-12T18:42:42.931Z,98724.34
2023-04-12T18:44:46.624Z,98736.28
2023-04-12T18:46:50.411Z,98729.09
2023-04-12T18:48:54.965Z,98739.38
2023-04-12T18:50:59.640Z,98739.13
2023-04-12T18:53:04.811Z,98744.97
2023-04-12T18:55:09.645Z,98748.44
2023-04-12T18:57:13.868Z,98761.47
2023-04-12T18:59:18.097Z,98771.06
2023-04-12T19:01:22.578Z,98786.72
2023-04-12T19:03:28.472Z,98799.00
2023-04-12T19:05:32.343Z,98805.97
2023-04-12T19:07:36.412Z,98802.63
2023-04-12T19:09:41.414Z,98813.16
2023-04-12T19:11:45.736Z,98818.41
2023-04-12T19:13:49.994Z,98830.97
2023-04-12T19:15:55.994Z,98831.22
2023-04-12T19:18:01.143Z,98846.28
2023-04-12T19:20:05.333Z,98850.97
2023-04-12T19:22:09.231Z,98856.44
2023-04-12T19:24:13.090Z,98861.00
2023-04-12T19:26:40.113Z,98856.00
2023-04-12T19:28:46.082Z,98882.50
2023-04-12T19:30:49.770Z,98868.66
2023-04-12T19:32:53.563Z,98867.88
2023-04-12T19:34:57.605Z,98890.84
2023-04-12T19:37:01.384Z,98891.09
2023-04-12T19:39:05.299Z,98886.91
2023-04-12T19:41:09.218Z,98889.88
2023-04-12T19:43:19.309Z,98896.31
2023-04-12T19:45:23.469Z,98908.91
2023-04-12T19:47:27.549Z,98909.09
2023-04-12T19:49:33.497Z,98913.78
2023-04-12T19:51:38.063Z,98918.19
2023-04-12T19:53:42.201Z,98927.88
2023-04-12T19:55:46.168Z,98930.38
2023-04-12T19:57:50.090Z,98940.06
2023-04-12T19:59:55.603Z,98953.91
2023-04-12T20:01:59.377Z,98949.53
2023-04-12T20:04:05.834Z,98955.47
2023-04-12T20:06:10.000Z,98954.66
2023-04-12T20:08:14.854Z,98957.28
2023-04-12T20:10:18.974Z,98950.34
2023-04-12T20:12:22.687Z,98960.16
2023-04-12T20:14:27.138Z,98968.25
2023-04-12T20:16:35.953Z,98972.81
2023-04-12T20:18:40.091Z,98975.66
2023-04-12T20:20:45.794Z,98971.56
2023-04-12T20:22:52.216Z,98976.22
2023-04-12T20:24:57.541Z,98985.19
2023-04-12T20:27:02.436Z,98988.75
2023-04-12T20:29:06.902Z,98990.66
2023-04-12T20:31:10.870Z,98982.03
2023-04-12T20:33:17.061Z,98990.88
2023-04-12T20:35:21.774Z,98999.72
2023-04-12T20:37:25.668Z,98998.03
2023-04-12T20:39:29.741Z,98999.84
2023-04-12T20:41:33.930Z,99003.41
2023-04-12T20:43:44.003Z,99003.53
2023-04-12T20:45:48.984Z,99010.44
2023-04-12T20:47:53.518Z,99013.19
2023-04-12T20:49:58.671Z,99023.69
2023-04-12T20:52:03.883Z,99027.06
2023-04-12T20:54:07.741Z,99015.69
2023-04-12T20:56:11.108Z,99019.31
2023-04-12T20:58:15.514Z,99036.84
2023-04-12T21:00:23.899Z,99037.81
2023-04-12T21:02:27.776Z,99037.91
2023-04-12T21:04:32.533Z,99037.91
2023-04-12T21:06:37.708Z,99038.88
2023-04-12T21:08:43.699Z,99038.88
2023-04-12T21:10:48.278Z,99052.94
2023-04-12T21:12:51.888Z,99052.00
2023-04-12T21:14:58.090Z,99059.91
2023-04-12T21:17:07.508Z,99060.72
2023-04-12T21:19:11.456Z,99063.22
2023-04-12T21:21:15.688Z,99059.53
2023-04-12T21:23:20.953Z,99068.25
2023-04-12T21:25:26.112Z,99063.88
2023-04-12T21:27:30.232Z,99071.63
2023-04-12T21:29:34.781Z,99072.56
2023-04-12T21:31:41.956Z,99075.19
2023-04-12T21:33:45.975Z,99072.69
2023-04-12T21:35:49.624Z,99074.59
2023-04-12T21:37:53.460Z,99071.13
2023-04-12T21:39:58.397Z,99088.69
2023-04-12T21:42:02.113Z,99092.13
2023-04-12T21:44:06.019Z,99089.50
2023-04-12T21:46:10.350Z,99093.09
2023-04-12T21:48:14.823Z,99093.94
2023-04-12T21:50:18.468Z,99089.75
2023-04-12T21:52:22.141Z,99095.81
2023-04-12T21:54:26.976Z,99116.84
2023-04-12T21:56:32.235Z,99116.97
2023-04-12T21:58:37.440Z,99126.53
2023-04-12T22:00:42.102Z,99110.88
2023-04-12T22:02:46.247Z,99109.06
2023-04-12T22:04:50.720Z,99110.13
2023-04-12T22:06:55.850Z,99113.81
2023-04-12T22:09:04.508Z,99111.41
2023-04-12T22:11:09.658Z,99121.22
2023-04-12T22:13:14.454Z,99119.63
2023-04-12T22:15:18.424Z,99117.19
2023-04-12T22:17:22.718Z,99130.44
2023-04-12T22:19:26.374Z,99118.28
2023-04-12T22:21:30.694Z,99125.31
2023-04-12T22:23:34.573Z,99127.22
2023-04-12T22:25:38.910Z,99135.91
2023-04-12T22:27:47.018Z,99139.19
2023-04-12T22:29:52.230Z,99132.13
2023-04-12T22:31:56.331Z,99139.78
2023-04-12T22:34:01.868Z,99144.84
2023-04-12T22:36:08.710Z,99143.69
2023-04-12T22:38:14.829Z,99143.56
2023-04-12T22:40:18.602Z,99152.06
2023-04-12T22:42:26.069Z,99155.44
2023-04-12T22:44:30.183Z,99158.78
2023-04-12T22:46:39.462Z,99158.78
2023-04-12T22:48:43.766Z,99163.31
2023-04-12T22:50:47.747Z,99163.53
2023-04-12T22:52:51.327Z,99174.34
2023-04-12T22:54:54.980Z,99164.19
2023-04-12T22:56:58.802Z,99173.13
2023-04-12T22:59:02.822Z,99175.09
2023-04-12T23:01:07.428Z,99180.47
2023-04-12T23:03:12.750Z,99187.75
2023-04-12T23:05:16.662Z,99178.41
2023-04-12T23:07:20.652Z,99181.22
2023-04-12T23:09:25.739Z,99192.69
2023-04-12T23:11:29.849Z,99190.13
2023-04-12T23:13:34.402Z,99189.53
2023-04-12T23:15:40.754Z,99179.13
2023-04-12T23:17:44.639Z,99188.78
2023-04-12T23:19:50.618Z,99187.19
2023-04-12T23:21:54.850Z,99186.47
2023-04-12T23:23:59.331Z,99187.31
2023-04-12T23:26:03.351Z,99183.09
2023-04-12T23:28:13.484Z,99182.28
2023-04-12T23:30:18.519Z,99189.31
2023-04-12T23:32:22.478Z,99198.25
2023-04-12T23:34:26.755Z,99196.56
2023-04-12T23:36:31.703Z,99194.03
2023-04-12T23:38:35.256Z,99205.47
2023-04-12T23:40:39.057Z,99206.41
2023-04-12T23:42:44.443Z,99211.66
2023-04-12T23:44:48.084Z,99207.28
2023-04-12T23:46:51.811Z,99204.81
2023-04-12T23:48:55.657Z,99218.81
2023-04-12T23:50:59.450Z,99211.88
2023-04-12T23:53:04.761Z,99209.16
2023-04-12T23:55:09.520Z,99202.19
2023-04-12T23:57:14.013Z,99202.13
2023-04-12T23:59:17.587Z,99198.66
